Time;durP1;ratioP1;P1;durP2;ratioP2;P2;SDS_P1;SDS_P2;PMS_P1;PMS_P2;Temp;Humidity;BMP_temperature;BMP_pressure;BME280_temperature;BME280_humidity;BME280_pressure;Samples;Min_cycle;Max_cycle;Signal;HPM_P1;HPM_P2
2023/10/28 00:00:37;;;;;;;3.47;1.10;;;;;;;20.13;52.78;93579.44;4209606;28;20466;-70
2023/10/28 00:02:40;;;;;;;5.03;1.17;;;;;;;20.18;52.47;93589.38;4214306;28;20070;-72
2023/10/28 00:04:42;;;;;;;3.53;1.00;;;;;;;20.23;52.56;93587.56;4214751;28;20082;-70
2023/10/28 00:06:44;;;;;;;4.63;1.10;;;;;;;20.28;52.26;93588.69;4214705;28;20048;-72
2023/10/28 00:08:45;;;;;;;3.60;1.30;;;;;;;20.29;52.20;93593.75;4204251;28;20060;-71
2023/10/28 00:10:48;;;;;;;4.43;1.20;;;;;;;20.30;52.12;93597.22;4195433;28;20052;-72
2023/10/28 00:12:50;;;;;;;3.88;1.00;;;;;;;20.34;52.07;93606.31;4213995;28;20404;-71
2023/10/28 00:14:52;;;;;;;3.38;0.98;;;;;;;20.38;52.02;93608.25;4213365;28;20432;-69
2023/10/28 00:16:53;;;;;;;3.95;1.38;;;;;;;20.32;52.07;93601.25;4195078;28;20500;-69
2023/10/28 00:18:56;;;;;;;2.33;0.98;;;;;;;20.40;52.08;93597.34;4208096;28;20415;-70
2023/10/28 00:20:58;;;;;;;4.25;1.05;;;;;;;20.40;51.89;93594.69;4214171;28;20060;-70
2023/10/28 00:23:00;;;;;;;3.72;0.90;;;;;;;20.38;51.96;93597.59;4211128;28;20048;-70
2023/10/28 00:25:03;;;;;;;3.93;1.00;;;;;;;20.35;52.16;93591.97;4204640;28;20051;-71
2023/10/28 00:27:05;;;;;;;4.40;1.20;;;;;;;20.40;52.12;93594.69;4205543;28;20347;-71
2023/10/28 00:29:07;;;;;;;3.85;0.93;;;;;;;20.35;52.17;93600.75;4198176;28;20413;-71
2023/10/28 00:31:09;;;;;;;5.25;1.23;;;;;;;20.34;52.21;93590.38;4214344;28;20059;-72
2023/10/28 00:33:12;;;;;;;5.38;1.00;;;;;;;20.36;52.28;93602.34;4213446;28;20051;-71
2023/10/28 00:35:14;;;;;;;6.45;1.25;;;;;;;20.38;52.34;93605.56;4197428;28;20060;-70
2023/10/28 00:37:17;;;;;;;2.80;0.95;;;;;;;20.33;52.67;93623.34;4213144;28;20590;-72
2023/10/28 00:39:18;;;;;;;2.90;1.05;;;;;;;20.36;52.45;93607.69;4213665;28;21192;-73
2023/10/28 00:41:20;;;;;;;3.83;1.20;;;;;;;20.42;52.29;93612.03;4214655;28;20051;-72
2023/10/28 00:43:24;;;;;;;4.65;1.30;;;;;;;20.44;52.36;93614.44;4212556;28;20047;-71
2023/10/28 00:45:27;;;;;;;4.65;1.27;;;;;;;20.39;52.59;93617.00;4211587;28;20052;-72
2023/10/28 00:47:30;;;;;;;6.13;1.17;;;;;;;20.25;52.93;93617.38;4213476;28;20500;-71
2023/10/28 00:49:32;;;;;;;4.35;1.20;;;;;;;20.20;53.27;93612.00;4210233;28;20097;-70
2023/10/28 00:51:35;;;;;;;3.58;1.27;;;;;;;20.20;53.21;93619.97;4193028;28;20511;-72
2023/10/28 00:53:36;;;;;;;3.05;1.38;;;;;;;20.19;53.17;93621.00;4196194;28;20389;-70
2023/10/28 00:55:39;;;;;;;3.30;1.00;;;;;;;20.22;53.17;93619.75;4212318;28;20419;-70
2023/10/28 00:57:43;;;;;;;2.83;1.15;;;;;;;20.19;53.41;93618.34;4212784;28;20078;-70
2023/10/28 00:59:45;;;;;;;3.55;1.00;;;;;;;20.17;53.30;93617.00;4208650;28;20079;-72
2023/10/28 01:01:47;;;;;;;3.75;1.10;;;;;;;20.19;53.36;93621.00;4208494;28;20043;-72
2023/10/28 01:03:49;;;;;;;3.78;1.40;;;;;;;20.18;53.44;93626.59;4210932;28;20105;-70
2023/10/28 01:05:51;;;;;;;6.00;1.50;;;;;;;20.20;53.65;93619.19;4195785;28;20079;-72
2023/10/28 01:07:52;;;;;;;6.78;1.33;;;;;;;20.20;53.58;93619.97;4200107;28;20036;-71
2023/10/28 01:09:55;;;;;;;7.28;1.70;;;;;;;20.13;53.85;93626.50;4195063;28;20048;-70
2023/10/28 01:11:58;;;;;;;;;;;;;;;20.14;53.75;93622.81;4200638;28;20056;-71
2023/10/28 01:14:00;;;;;;;6.13;1.40;;;;;;;20.09;54.20;93633.34;4210819;28;19959;-71
2023/10/28 01:16:01;;;;;;;5.38;1.60;;;;;;;20.11;54.39;93618.78;4188843;28;20067;-70
2023/10/28 01:18:05;;;;;;;6.13;1.65;;;;;;;20.09;54.43;93617.41;4212674;28;20127;-70
2023/10/28 01:20:09;;;;;;;10.35;1.80;;;;;;;20.07;54.48;93617.66;4208771;28;20048;-70
2023/10/28 01:22:11;;;;;;;7.18;2.00;;;;;;;19.90;55.15;93630.97;4195493;28;20052;-71
2023/10/28 01:24:12;;;;;;;4.45;1.35;;;;;;;19.89;54.88;93613.41;4206230;28;20044;-69
2023/10/28 01:26:14;;;;;;;9.10;1.45;;;;;;;19.90;55.15;93630.97;4212569;28;20052;-70
2023/10/28 01:28:18;;;;;;;5.85;1.48;;;;;;;19.91;55.21;93627.25;4213176;28;20079;-73
2023/10/28 01:30:19;;;;;;;6.35;1.40;;;;;;;19.91;55.30;93629.91;4195606;28;20060;-71
2023/10/28 01:32:21;;;;;;;6.60;1.77;;;;;;;19.91;54.98;93631.78;4212859;28;20048;-68
2023/10/28 01:34:23;;;;;;;7.75;1.92;;;;;;;19.83;55.33;93625.00;4199384;28;20629;-70
2023/10/28 01:36:25;;;;;;;7.25;1.75;;;;;;;19.83;55.64;93631.13;4208585;28;20055;-71
2023/10/28 01:38:26;;;;;;;8.65;1.90;;;;;;;19.80;55.20;93625.50;4189461;28;20066;-69
2023/10/28 01:40:31;;;;;;;4.25;1.20;;;;;;;19.69;55.28;93634.31;4212990;28;20573;-72
2023/10/28 01:42:34;;;;;;;8.43;1.60;;;;;;;19.76;55.59;93621.72;4193749;28;20214;-70
2023/10/28 01:44:37;;;;;;;4.72;1.67;;;;;;;19.73;55.67;93630.19;4194713;28;20058;-71
2023/10/28 01:46:41;;;;;;;9.55;1.92;;;;;;;19.65;56.11;93626.81;4203191;28;20408;-70
2023/10/28 01:48:45;;;;;;;8.10;1.98;;;;;;;19.71;55.69;93624.28;4192429;28;20059;-69
2023/10/28 01:50:47;;;;;;;6.35;1.85;;;;;;;19.60;55.87;93616.13;4212008;28;20044;-71
2023/10/28 01:52:49;;;;;;;6.88;1.75;;;;;;;19.62;56.01;93614.03;4204772;28;20044;-72
2023/10/28 01:54:51;;;;;;;7.90;2.00;;;;;;;19.60;56.24;93621.44;4212955;28;20048;-69
2023/10/28 01:56:54;;;;;;;5.22;1.55;;;;;;;19.57;55.95;93616.59;4193663;28;20504;-71
2023/10/28 01:58:56;;;;;;;7.80;1.80;;;;;;;19.60;55.16;93616.13;4212088;28;20052;-72
2023/10/28 02:00:59;;;;;;;4.13;1.25;;;;;;;19.60;54.25;93633.91;4212130;28;20097;-71
2023/10/28 02:03:02;;;;;;;6.00;1.02;;;;;;;19.67;53.87;93631.09;4213039;28;20472;-72
2023/10/28 02:05:04;;;;;;;3.33;0.98;;;;;;;19.75;53.37;93634.19;4193280;28;20048;-71
2023/10/28 02:07:06;;;;;;;3.30;1.10;;;;;;;19.85;53.20;93636.19;4184435;28;20512;-71
2023/10/28 02:09:08;;;;;;;3.35;0.98;;;;;;;19.94;52.94;93636.59;4198429;28;20048;-71
2023/10/28 02:11:10;;;;;;;4.57;1.05;;;;;;;19.95;52.54;93639.00;4173255;28;20052;-69
2023/10/28 02:13:13;;;;;;;5.50;1.10;;;;;;;19.95;52.69;93647.00;4211972;28;20056;-72
2023/10/28 02:15:17;;;;;;;2.90;0.88;;;;;;;19.97;52.72;93647.56;4212525;28;20415;-70
2023/10/28 02:17:19;;;;;;;6.32;1.30;;;;;;;19.94;52.27;93644.56;4212642;28;20071;-71
2023/10/28 02:19:21;;;;;;;5.40;1.60;;;;;;;19.97;52.29;93660.84;4194946;28;20096;-69
2023/10/28 02:21:24;;;;;;;4.80;1.05;;;;;;;19.97;52.41;93646.75;4177862;28;20045;-69
2023/10/28 02:23:28;;;;;;;4.40;1.05;;;;;;;20.00;52.25;93656.88;4212252;28;20105;-71
2023/10/28 02:25:32;;;;;;;3.88;1.10;;;;;;;20.04;52.15;93653.50;4212796;28;20567;-72
2023/10/28 02:27:34;;;;;;;5.32;1.30;;;;;;;20.07;52.15;93659.38;4212143;28;20063;-71
2023/10/28 02:29:37;;;;;;;3.30;1.05;;;;;;;20.07;52.07;93657.53;4176473;28;20099;-72
2023/10/28 02:31:39;;;;;;;4.50;1.27;;;;;;;20.05;52.05;93665.75;4211481;28;20043;-69
2023/10/28 02:33:41;;;;;;;4.88;1.20;;;;;;;20.02;52.19;93657.44;4211912;28;20552;-72
2023/10/28 02:35:42;;;;;;;4.88;1.20;;;;;;;20.01;52.07;93664.63;4210300;28;20048;-73
2023/10/28 02:37:44;;;;;;;4.88;1.20;;;;;;;19.98;52.19;93665.13;4211974;28;20051;-71
2023/10/28 02:39:47;;;;;;;11.32;1.85;;;;;;;19.96;52.05;93656.59;4190174;28;20092;-72
2023/10/28 02:41:49;;;;;;;5.07;1.23;;;;;;;20.00;51.89;93656.88;4206509;28;20051;-72
2023/10/28 02:43:51;;;;;;;4.10;1.15;;;;;;;20.01;52.30;93656.66;4212315;28;20086;-71
2023/10/28 02:45:53;;;;;;;6.00;1.13;;;;;;;20.02;51.98;93652.13;4211201;28;20051;-70
2023/10/28 02:47:55;;;;;;;4.32;1.25;;;;;;;20.06;51.95;93642.63;4193949;28;20059;-70
2023/10/28 02:49:56;;;;;;;4.95;1.50;;;;;;;20.01;52.38;93653.19;4209867;28;20074;-70
2023/10/28 02:51:58;;;;;;;6.25;2.55;;;;;;;19.84;54.27;93653.19;4210651;28;20051;-70
2023/10/28 02:54:01;;;;;;;11.30;2.90;;;;;;;19.66;55.33;93659.53;4209592;28;20150;-71
2023/10/28 02:56:03;;;;;;;7.93;3.08;;;;;;;19.48;55.88;93665.84;4191861;28;20131;-71
2023/10/28 02:58:05;;;;;;;11.77;2.80;;;;;;;19.29;56.78;93662.59;4212046;28;20567;-70
2023/10/28 03:00:08;;;;;;;11.55;2.90;;;;;;;18.85;58.25;93666.81;4209674;28;20056;-69
2023/10/28 03:02:10;;;;;;;9.82;4.38;;;;;;;18.67;58.91;93665.06;4211639;28;20052;-70
2023/10/28 03:04:13;;;;;;;128.00;69.25;;;;;;;18.53;59.32;93664.53;4187449;28;20139;-69
2023/10/28 03:06:15;;;;;;;40.22;19.20;;;;;;;18.50;59.60;93672.94;4194618;28;20059;-68
2023/10/28 03:08:18;;;;;;;30.33;19.08;;;;;;;18.48;59.91;93662.59;4210030;28;20044;-71
2023/10/28 03:10:20;;;;;;;9.50;4.00;;;;;;;18.36;60.21;93667.09;4191780;28;20076;-72
2023/10/28 03:12:23;;;;;;;;;;;;;;;18.30;60.64;93675.97;4212675;28;20052;-72
2023/10/28 03:14:25;;;;;;;15.65;5.93;;;;;;;18.29;60.43;93683.13;4211129;28;20399;-71
2023/10/28 03:16:27;;;;;;;16.83;5.38;;;;;;;18.28;60.81;93676.19;4210412;28;20056;-72
2023/10/28 03:18:30;;;;;;;20.42;10.48;;;;;;;18.09;61.27;93672.03;4199753;28;20040;-69
2023/10/28 03:20:32;;;;;;;12.65;4.47;;;;;;;17.97;61.51;93675.50;4212586;28;20127;-69
2023/10/28 03:22:36;;;;;;;90.05;48.30;;;;;;;17.99;61.67;93684.03;4203351;28;20059;-70
2023/10/28 03:24:39;;;;;;;7.70;4.82;;;;;;;17.99;61.78;93684.03;4210253;28;20052;-73
2023/10/28 03:26:40;;;;;;;7.38;3.67;;;;;;;17.89;62.17;93686.44;4189892;28;20044;-68
2023/10/28 03:28:42;;;;;;;38.80;28.55;;;;;;;17.89;62.08;93689.09;4196059;28;20051;-71
2023/10/28 03:30:44;;;;;;;20.90;11.35;;;;;;;17.85;62.17;93687.94;4206522;28;20055;-71
2023/10/28 03:32:47;;;;;;;13.07;8.18;;;;;;;17.91;62.26;93697.63;4209925;28;20163;-72
2023/10/28 03:34:49;;;;;;;11.73;3.80;;;;;;;17.96;62.20;93688.97;4201078;28;20040;-71
2023/10/28 03:36:50;;;;;;;9.55;3.03;;;;;;;17.90;62.31;93690.72;4212152;28;20044;-69
2023/10/28 03:38:55;;;;;;;7.22;3.40;;;;;;;17.86;62.38;93688.75;4201071;28;20072;-70
2023/10/28 03:41:06;;;;;;;12.88;3.60;;;;;;;17.82;62.49;93696.34;4210552;28;20052;-68
2023/10/28 03:43:09;;;;;;;7.18;2.78;;;;;;;17.86;62.48;93699.34;4211972;28;20481;-70
2023/10/28 03:45:11;;;;;;;11.73;4.07;;;;;;;17.92;62.19;93703.75;4211264;28;20048;-72
2023/10/28 03:47:13;;;;;;;7.55;3.90;;;;;;;17.96;62.27;93697.75;4207289;28;20051;-71
2023/10/28 03:49:15;;;;;;;5.20;3.03;;;;;;;17.96;62.18;93703.06;4189347;28;20056;-70
2023/10/28 03:51:17;;;;;;;8.13;2.88;;;;;;;17.96;61.97;93708.34;4190091;28;20053;-71
2023/10/28 03:53:19;;;;;;;11.32;3.85;;;;;;;17.97;61.99;93703.84;4215218;28;20054;-72
2023/10/28 03:55:20;;;;;;;10.68;3.40;;;;;;;17.97;62.11;93715.25;4214049;28;20052;-72
2023/10/28 03:57:22;;;;;;;15.48;3.80;;;;;;;17.94;62.21;93715.72;4196632;28;20051;-68
2023/10/28 03:59:24;;;;;;;7.88;3.20;;;;;;;17.64;62.87;93704.31;4195055;28;20737;-70
2023/10/28 04:01:26;;;;;;;8.48;3.10;;;;;;;17.50;63.56;93709.81;4191970;28;20139;-71
2023/10/28 04:03:27;;;;;;;9.63;3.17;;;;;;;17.52;63.77;93718.34;4214327;28;20052;-71
2023/10/28 04:05:29;;;;;;;12.85;3.35;;;;;;;17.56;63.63;93722.16;4180293;28;20053;-71
2023/10/28 04:07:31;;;;;;;7.15;2.97;;;;;;;17.60;63.59;93725.97;4214783;28;20051;-73
2023/10/28 04:09:33;;;;;;;11.43;3.45;;;;;;;17.63;63.34;93722.06;4214074;28;20054;-71
2023/10/28 04:11:35;;;;;;;9.85;3.72;;;;;;;17.69;63.10;93728.31;4214323;28;20552;-72
2023/10/28 04:13:37;;;;;;;8.38;2.92;;;;;;;17.74;63.08;93731.88;4186395;28;20055;-72
2023/10/28 04:15:41;;;;;;;9.10;3.17;;;;;;;17.76;62.85;93729.81;4172177;28;20049;-70
2023/10/28 04:17:43;;;;;;;;;;;;;;;17.76;62.81;93726.34;4213376;28;20044;-72
2023/10/28 04:19:45;;;;;;;13.25;3.78;;;;;;;17.78;62.79;93726.94;4212288;28;19928;-68
2023/10/28 04:21:47;;;;;;;6.78;3.60;;;;;;;17.72;62.94;93730.50;4213304;28;20089;-71
2023/10/28 04:23:50;;;;;;;7.63;3.40;;;;;;;17.52;63.64;93739.53;4213694;28;20044;-72
2023/10/28 04:25:52;;;;;;;8.40;3.33;;;;;;;17.46;63.85;93744.91;4197075;28;20392;-72
2023/10/28 04:27:54;;;;;;;9.60;3.63;;;;;;;17.50;63.68;93733.66;4213773;28;20082;-71
2023/10/28 04:29:55;;;;;;;10.48;3.20;;;;;;;17.51;63.91;93732.63;4195235;28;20130;-72
2023/10/28 04:31:57;;;;;;;12.25;3.47;;;;;;;17.33;64.40;93743.25;4196571;28;20044;-71
2023/10/28 04:34:02;;;;;;;7.90;3.35;;;;;;;17.19;64.77;93745.28;4203381;28;20487;-69
2023/10/28 04:36:04;;;;;;;12.43;3.50;;;;;;;17.23;65.05;93748.28;4207919;28;20047;-72
2023/10/28 04:38:07;;;;;;;13.02;4.00;;;;;;;17.29;64.59;93742.09;4209290;28;20523;-72
2023/10/28 04:40:10;;;;;;;11.63;4.00;;;;;;;17.33;64.60;93746.69;4189792;28;20457;-73
2023/10/28 04:42:12;;;;;;;7.82;3.28;;;;;;;17.32;64.61;93745.09;4205099;28;20051;-70
2023/10/28 04:44:14;;;;;;;5.90;3.40;;;;;;;17.36;64.60;93750.78;4208293;28;20492;-72
2023/10/28 04:46:18;;;;;;;9.18;3.80;;;;;;;17.37;64.63;93747.06;4200444;28;20471;-71
2023/10/28 04:48:21;;;;;;;8.63;3.10;;;;;;;17.40;64.18;93746.63;4214453;28;20479;-72
2023/10/28 04:50:25;;;;;;;8.40;3.63;;;;;;;17.44;64.21;93755.72;4213279;28;20044;-71
2023/10/28 04:52:27;;;;;;;14.20;5.00;;;;;;;17.47;64.06;93750.00;4189432;28;20285;-70
2023/10/28 04:54:29;;;;;;;8.32;3.40;;;;;;;17.46;64.10;93758.97;4195788;28;20045;-71
2023/10/28 04:56:31;;;;;;;8.35;3.83;;;;;;;17.41;64.35;93764.13;4210239;28;20441;-70
2023/10/28 04:58:32;;;;;;;9.98;3.70;;;;;;;17.24;64.99;93765.78;4199032;28;20053;-70
2023/10/28 05:00:34;;;;;;;11.55;4.50;;;;;;;17.24;65.13;93763.13;4212087;28;20074;-72
2023/10/28 05:02:36;;;;;;;9.25;4.32;;;;;;;17.28;64.96;93765.09;4213816;28;20146;-70
2023/10/28 05:04:39;;;;;;;10.20;4.43;;;;;;;17.34;64.88;93772.16;4185027;28;20044;-72
2023/10/28 05:06:43;;;;;;;8.57;4.38;;;;;;;17.42;64.43;93771.03;4194801;28;20074;-70
2023/10/28 05:08:47;;;;;;;9.07;4.05;;;;;;;17.48;64.32;93775.44;4213689;28;20067;-70
2023/10/28 05:10:51;;;;;;;13.50;4.13;;;;;;;17.52;64.21;93773.94;4213139;28;20106;-71
2023/10/28 05:12:54;;;;;;;10.88;4.00;;;;;;;17.55;64.10;93775.34;4195727;28;20627;-74
2023/10/28 05:14:58;;;;;;;12.13;4.00;;;;;;;17.58;63.92;93782.84;4210112;28;20067;-72
2023/10/28 05:17:00;;;;;;;11.23;3.70;;;;;;;17.58;63.99;93783.66;4213396;28;20055;-72
2023/10/28 05:19:02;;;;;;;9.10;4.03;;;;;;;17.63;63.89;93788.28;4187700;28;20045;-72
2023/10/28 05:21:05;;;;;;;10.15;3.92;;;;;;;17.63;63.55;93790.91;4191255;28;20124;-70
2023/10/28 05:23:07;;;;;;;9.70;3.70;;;;;;;17.68;63.63;93795.53;4211032;28;20136;-69
2023/10/28 05:25:09;;;;;;;8.48;3.67;;;;;;;17.69;63.56;93797.97;4211221;28;20040;-72
2023/10/28 05:27:10;;;;;;;10.57;4.47;;;;;;;17.67;63.63;93805.34;4170576;28;20041;-71
2023/10/28 05:29:12;;;;;;;10.70;4.60;;;;;;;17.68;63.63;93806.13;4212304;28;20056;-73
2023/10/28 05:31:14;;;;;;;10.75;4.18;;;;;;;17.65;63.64;93807.41;4213208;28;20477;-72
2023/10/28 05:33:17;;;;;;;12.05;4.53;;;;;;;17.65;63.61;93814.53;4195101;28;20040;-71
2023/10/28 05:35:18;;;;;;;9.45;3.97;;;;;;;17.66;63.55;93816.16;4213256;28;20052;-72
2023/10/28 05:37:22;;;;;;;8.48;3.83;;;;;;;17.66;63.45;93816.97;4196652;28;20506;-72
2023/10/28 05:39:25;;;;;;;16.40;3.92;;;;;;;17.65;63.61;93827.78;4212667;28;20917;-73
2023/10/28 05:41:26;;;;;;;9.57;4.07;;;;;;;17.44;64.18;93821.91;4191736;28;20060;-72
2023/10/28 05:43:28;;;;;;;12.18;3.85;;;;;;;17.29;65.10;93824.94;4206755;28;20109;-72
2023/10/28 05:45:30;;;;;;;12.82;4.95;;;;;;;17.15;65.58;93826.94;4210878;28;20047;-73
2023/10/28 05:47:32;;;;;;;10.70;4.10;;;;;;;17.23;65.45;93835.63;4210553;28;20074;-73
2023/10/28 05:49:34;;;;;;;16.73;4.22;;;;;;;17.33;65.01;93842.00;4213721;28;20047;-71
2023/10/28 05:51:36;;;;;;;18.15;5.03;;;;;;;17.10;65.72;93841.84;4195439;28;20112;-73
2023/10/28 05:53:40;;;;;;;13.27;4.53;;;;;;;17.04;65.90;93837.47;4212127;28;20047;-73
2023/10/28 05:55:41;;;;;;;13.50;5.53;;;;;;;17.14;66.02;93838.56;4201018;28;20404;-72
2023/10/28 05:57:45;;;;;;;10.50;5.18;;;;;;;17.25;65.30;93839.69;4194021;28;20060;-73
2023/10/28 05:59:47;;;;;;;11.95;5.15;;;;;;;17.14;65.88;93846.50;4210955;28;19923;-71
2023/10/28 06:01:51;;;;;;;16.63;5.38;;;;;;;17.23;65.76;93851.50;4170635;28;20056;-71
2023/10/28 06:03:53;;;;;;;14.45;5.65;;;;;;;17.34;65.57;93856.88;4195144;28;20136;-72
2023/10/28 06:05:55;;;;;;;13.15;5.60;;;;;;;17.52;65.04;93856.03;4209008;28;20053;-73
2023/10/28 06:07:57;;;;;;;12.95;5.53;;;;;;;17.73;64.38;93860.06;4208794;28;20052;-73
2023/10/28 06:09:59;;;;;;;9.68;4.85;;;;;;;17.89;63.62;93869.25;4201734;28;20084;-73
2023/10/28 06:12:01;;;;;;;11.23;4.30;;;;;;;18.03;63.42;93869.91;4195905;28;20492;-72
2023/10/28 06:14:03;;;;;;;19.00;5.50;;;;;;;18.14;63.14;93866.47;4211732;28;20055;-73
2023/10/28 06:16:07;;;;;;;11.32;5.30;;;;;;;18.23;62.93;93872.25;4205582;28;20106;-72
2023/10/28 06:18:09;;;;;;;13.02;4.95;;;;;;;18.33;62.44;93866.41;4200737;28;20076;-70
2023/10/28 06:20:12;;;;;;;9.60;4.72;;;;;;;18.43;62.29;93874.59;4209021;28;20048;-71
2023/10/28 06:22:14;;;;;;;13.73;4.60;;;;;;;18.53;62.08;93884.66;4213069;28;20054;-72
2023/10/28 06:24:16;;;;;;;10.73;4.38;;;;;;;18.61;61.77;93881.69;4195308;28;20131;-70
2023/10/28 06:26:19;;;;;;;16.20;4.97;;;;;;;18.75;61.43;93883.06;4210558;28;20048;-72
2023/10/28 06:28:21;;;;;;;;;;;;;;;18.83;61.15;93892.59;4203518;28;20044;-74
2023/10/28 06:30:23;;;;;;;10.10;4.70;;;;;;;18.90;60.81;93898.56;4211668;28;20015;-72
2023/10/28 06:32:27;;;;;;;12.85;4.55;;;;;;;18.94;60.57;93905.03;4211716;28;20593;-73
2023/10/28 06:34:29;;;;;;;12.40;4.85;;;;;;;18.83;60.31;93905.84;4194987;28;20041;-71
2023/10/28 06:36:33;;;;;;;8.73;4.82;;;;;;;18.74;60.63;93907.19;4211571;28;20590;-72
2023/10/28 06:38:35;;;;;;;12.30;4.90;;;;;;;18.74;61.00;93909.84;4207104;28;20481;-73
2023/10/28 06:40:40;;;;;;;11.77;4.75;;;;;;;18.81;61.05;93916.69;4208996;28;20496;-73
2023/10/28 06:42:41;;;;;;;11.20;4.65;;;;;;;18.90;60.25;93911.03;4195497;28;20479;-74
2023/10/28 06:44:43;;;;;;;10.82;4.40;;;;;;;18.98;60.38;93910.72;4193101;28;20397;-72
2023/10/28 06:46:45;;;;;;;11.13;4.55;;;;;;;19.09;59.66;93920.50;4189307;28;20090;-72
2023/10/28 06:48:47;;;;;;;9.98;3.85;;;;;;;19.18;59.46;93921.78;4206131;28;20469;-69
2023/10/28 06:50:48;;;;;;;9.95;4.35;;;;;;;19.24;59.01;93936.00;4206054;28;20055;-73
2023/10/28 06:52:50;;;;;;;12.77;5.00;;;;;;;19.33;58.69;93929.28;4194868;28;20048;-72
2023/10/28 06:54:53;;;;;;;12.87;4.20;;;;;;;19.35;58.41;93937.03;4208191;28;20048;-73
2023/10/28 06:56:55;;;;;;;9.40;3.90;;;;;;;19.40;58.41;93942.44;4193240;28;20124;-72
2023/10/28 06:58:58;;;;;;;7.68;3.70;;;;;;;19.44;58.06;93943.59;4193832;28;20043;-72
2023/10/28 07:01:00;;;;;;;10.93;3.92;;;;;;;19.47;58.04;93935.19;4210495;28;20076;-74
2023/10/28 07:03:02;;;;;;;11.75;4.78;;;;;;;19.33;58.42;93945.22;4212286;28;20097;-73
2023/10/28 07:05:04;;;;;;;8.85;3.97;;;;;;;19.28;58.52;93937.16;4190207;28;20538;-73
2023/10/28 07:07:12;;;;;;;17.33;3.90;;;;;;;19.23;58.27;93945.00;4213372;28;20052;-74
2023/10/28 07:09:17;;;;;;;9.52;4.22;;;;;;;19.27;58.48;93945.34;4206886;28;20106;-73
2023/10/28 07:11:19;;;;;;;8.45;3.63;;;;;;;19.34;58.24;93951.34;4212358;28;20565;-73
2023/10/28 07:13:23;;;;;;;7.20;3.65;;;;;;;19.43;57.92;93949.97;4211148;28;20051;-72
2023/10/28 07:15:25;;;;;;;12.82;4.00;;;;;;;19.36;57.65;93951.91;4194266;28;20500;-73
2023/10/28 07:17:28;;;;;;;8.88;4.10;;;;;;;19.31;57.87;93957.13;4211236;28;20059;-73
2023/10/28 07:19:30;;;;;;;12.82;4.28;;;;;;;19.33;58.08;93966.47;4211687;28;20404;-72
2023/10/28 07:21:32;;;;;;;14.77;4.88;;;;;;;19.37;58.11;93972.94;4211710;28;20086;-72
2023/10/28 07:23:35;;;;;;;13.53;4.80;;;;;;;19.45;58.03;93963.81;4202339;28;20054;-71
2023/10/28 07:25:37;;;;;;;8.77;4.43;;;;;;;19.31;57.87;93962.41;4215600;28;20281;-72
2023/10/28 07:27:39;;;;;;;11.00;5.00;;;;;;;18.74;59.42;93974.31;4215081;28;20059;-72
2023/10/28 07:29:41;;;;;;;7.47;4.00;;;;;;;18.49;60.43;93960.41;4214204;28;20083;-71
2023/10/28 07:31:43;;;;;;;9.90;4.18;;;;;;;18.59;60.41;93960.69;4215383;28;20048;-73
2023/10/28 07:33:46;;;;;;;10.30;4.40;;;;;;;18.72;60.36;93960.47;4181375;28;20110;-74
2023/10/28 07:35:48;;;;;;;;;;;;;;;18.88;59.65;93966.19;4197593;28;20099;-72
2023/10/28 07:37:50;;;;;;;11.23;4.68;;;;;;;18.98;59.58;93961.13;4196868;28;19931;-73
2023/10/28 07:39:52;;;;;;;10.77;4.57;;;;;;;19.01;58.92;93971.28;4208326;28;20041;-74
2023/10/28 07:41:54;;;;;;;10.73;3.80;;;;;;;18.96;59.18;93961.34;4191974;28;20056;-75
2023/10/28 07:43:56;;;;;;;14.50;4.55;;;;;;;19.01;59.30;93968.63;4213568;28;20044;-74
2023/10/28 07:45:59;;;;;;;10.35;4.38;;;;;;;19.24;58.88;93965.19;4203929;28;20456;-73
2023/10/28 07:48:01;;;;;;;11.85;3.70;;;;;;;19.51;58.26;93967.38;4207569;28;20049;-73
2023/10/28 07:50:04;;;;;;;9.15;4.75;;;;;;;19.69;57.83;93966.44;4210175;28;20040;-73
2023/10/28 07:52:07;;;;;;;9.18;4.13;;;;;;;19.91;57.18;93969.31;4213821;28;20052;-74
2023/10/28 07:54:10;;;;;;;8.68;4.70;;;;;;;20.10;56.77;93972.63;4197362;28;20059;-74
2023/10/28 07:56:14;;;;;;;9.50;4.43;;;;;;;20.16;56.01;93966.38;4215639;28;20055;-73
2023/10/28 07:58:16;;;;;;;12.50;5.05;;;;;;;20.28;55.89;93972.44;4215308;28;20047;-74
2023/10/28 08:00:19;;;;;;;9.85;4.00;;;;;;;20.44;55.65;93973.56;4196004;28;21447;-75
2023/10/28 08:02:21;;;;;;;7.55;3.50;;;;;;;20.64;55.45;93978.47;4211334;28;20389;-74
2023/10/28 08:04:23;;;;;;;10.13;3.63;;;;;;;20.83;54.85;93981.75;4207295;28;20098;-73
2023/10/28 08:06:27;;;;;;;9.75;3.63;;;;;;;20.90;53.84;93973.59;4213541;28;20048;-74
2023/10/28 08:08:35;;;;;;;10.65;3.72;;;;;;;20.94;53.44;93982.72;4214373;28;20052;-72
2023/10/28 08:10:40;;;;;;;9.43;3.72;;;;;;;21.01;53.65;93986.03;4215517;28;20484;-72
2023/10/28 08:12:42;;;;;;;8.85;3.22;;;;;;;21.17;53.50;93979.91;4197068;28;20080;-74
2023/10/28 08:14:48;;;;;;;10.18;3.10;;;;;;;21.33;53.12;93977.47;4209297;28;20127;-74
2023/10/28 08:16:52;;;;;;;7.50;2.85;;;;;;;21.16;52.72;93969.50;4199137;28;20097;-72
2023/10/28 08:18:54;;;;;;;;;;;;;;;21.27;52.96;93973.91;4215005;28;20135;-69
2023/10/28 08:20:57;;;;;;;11.32;3.17;;;;;;;21.43;52.99;93977.66;4214950;28;19943;-72
2023/10/28 08:22:58;;;;;;;10.57;3.33;;;;;;;21.28;52.65;93976.34;4209430;28;20055;-73
2023/10/28 08:25:04;;;;;;;7.63;3.17;;;;;;;21.41;52.86;93975.25;4180807;28;20483;-73
2023/10/28 08:27:08;;;;;;;9.88;4.07;;;;;;;21.52;52.20;93981.53;4189531;28;20107;-73
2023/10/28 08:29:11;;;;;;;10.52;3.25;;;;;;;21.59;52.14;93976.81;4193466;28;20139;-74
2023/10/28 08:31:13;;;;;;;8.55;2.75;;;;;;;21.62;52.38;93976.34;4214854;28;20047;-71
2023/10/28 08:33:15;;;;;;;14.05;3.10;;;;;;;21.78;51.95;93979.22;4214769;28;20487;-73
2023/10/28 08:35:19;;;;;;;6.97;2.80;;;;;;;21.77;51.85;93977.59;4196052;28;20131;-75
2023/10/28 08:37:21;;;;;;;12.32;3.20;;;;;;;21.93;51.95;93987.41;4202050;28;20416;-72
2023/10/28 08:39:25;;;;;;;12.45;3.13;;;;;;;21.58;51.49;93987.75;4211247;28;20045;-73
2023/10/28 08:41:27;;;;;;;8.65;3.10;;;;;;;21.16;52.85;93986.25;4206266;28;20554;-72
2023/10/28 08:43:34;;;;;;;8.50;3.08;;;;;;;21.13;52.72;93997.41;4184815;28;20103;-73
2023/10/28 08:45:37;;;;;;;7.70;3.10;;;;;;;21.25;52.43;93982.16;4213373;28;20044;-74
2023/10/28 08:47:40;;;;;;;9.80;3.00;;;;;;;21.27;52.33;93988.06;4190552;28;20157;-73
2023/10/28 08:49:44;;;;;;;11.63;3.00;;;;;;;21.51;52.28;93984.44;4208136;28;20044;-73
2023/10/28 08:51:47;;;;;;;8.63;3.20;;;;;;;21.54;51.90;93986.63;4201312;28;20056;-72
2023/10/28 08:53:50;;;;;;;8.15;3.05;;;;;;;21.70;51.30;93983.09;4195222;28;20130;-71
2023/10/28 08:55:53;;;;;;;7.57;3.00;;;;;;;21.66;50.35;93990.81;4196785;28;20074;-75
2023/10/28 08:57:55;;;;;;;9.27;3.05;;;;;;;21.74;50.99;93986.88;4204380;28;20051;-74
2023/10/28 08:59:57;;;;;;;7.20;3.27;;;;;;;22.00;50.61;93971.22;4202010;28;20049;-76
2023/10/28 09:02:00;;;;;;;8.82;2.97;;;;;;;22.05;50.20;93974.78;4195734;28;20059;-72
2023/10/28 09:04:04;;;;;;;10.88;3.22;;;;;;;22.04;49.74;93986.50;4212613;28;20044;-72
2023/10/28 09:06:06;;;;;;;;;;;;;;;21.89;50.28;93992.44;4215025;28;20134;-73
2023/10/28 09:08:08;;;;;;;9.02;3.20;;;;;;;21.80;50.63;93988.59;4183431;28;19974;-74
2023/10/28 09:10:10;;;;;;;10.52;3.13;;;;;;;22.08;50.27;93981.47;4213618;28;20073;-73
2023/10/28 09:12:13;;;;;;;;;;;;;;;22.27;50.16;93998.81;4214509;28;20040;-72
2023/10/28 09:14:16;;;;;;;8.88;3.03;;;;;;;22.57;48.72;93992.22;4212936;28;19963;-72
2023/10/28 09:16:18;;;;;;;17.70;3.20;;;;;;;22.51;48.40;93976.41;4202732;28;20075;-71
2023/10/28 09:18:20;;;;;;;9.40;3.13;;;;;;;22.80;48.29;93990.28;4212929;28;20122;-73
2023/10/28 09:20:22;;;;;;;8.10;3.17;;;;;;;23.09;46.62;93988.19;4213371;28;20044;-74
2023/10/28 09:22:24;;;;;;;9.57;2.10;;;;;;;23.18;44.17;93986.66;4179818;28;20441;-73
2023/10/28 09:24:26;;;;;;;7.45;1.88;;;;;;;23.26;44.03;93982.72;4213460;28;20420;-74
2023/10/28 09:26:31;;;;;;;6.07;2.30;;;;;;;23.47;44.24;93986.38;4213985;28;20427;-74
2023/10/28 09:28:32;;;;;;;8.35;1.52;;;;;;;23.55;42.78;93983.19;4189077;28;20605;-73
2023/10/28 09:30:46;;;;;;;9.15;2.90;;;;;;;23.33;42.61;93972.63;4207547;28;20136;-70
2023/10/28 09:32:49;;;;;;;7.05;2.10;;;;;;;23.15;42.53;93978.38;4212617;28;20052;-72
2023/10/28 09:34:52;;;;;;;6.90;1.60;;;;;;;23.11;42.52;93986.09;4195403;28;20074;-73